Startpagina
METAR-TAF:

METAR-TAF

Vliegvelden :

Luchthaven Caïro Internationaal

Caïro, Egypte

breedte: 30-08N, lengte: 031-24E, hoogte: 64 m

Actueel weer

Dit bericht is 32 minuten geleden gemaakt, om 23:00 UTC
Wind 5 kt uit het noordoosten
Temperatuur 27°C
Vochtigheid 70%
Druk 1012 hPa
Zicht 10 km of meer
geen wolken onder 1500 m en geen cumulonimbus

METAR: HECA 172300Z 04005KT CAVOK 27/21 Q1012 NOSIG

Tijdstip: 01:32 (23:32 UTC)

Verwachting

Dit bericht is 6 uur en het 32 minuten geleden gemaakt, om 17:00 UTC
Verwachting geldig van 17 om 18 UTC tot 18 om 24 UTC
Wind 9 kt uit het noorden
Zicht 10 km of meer
Weinig wolken op 2500 ft
Tijdelijke
van 18 om 02 UTC tot 18 om 06 UTC
Wind 3 kt uit variabele richting

TAF: HECA 171700Z 1718/1824 35009KT 9999 FEW025 TEMPO 1802/1806 VRB03KT 4000BR NSC

Waarnemingen en weersverwachtingen van meer dan 4000 vliegvelden (METAR en TAF).

De beschikbare stations zijn de gele en rode punten op de kaart.

Ga met uw muis naar het station om de naam te zien.

Klik dan om waarnemingen en weersverwachtingen te zien.

kaart wijzigen: klik op de groene knoppen met een zwart kruis om in te zoomen, op de groene knop met een streepje om uit te zoomen of op de groene pijlen voor aangrenzende kaarten.


METAR-TAF: